Terminal Aerodrome Forecast
Issued by NWS

Home | Current Version | Previous Version | Text Only | Print | Product List | Glossary On
Versions: 1 2 3 4 5 6 7 8 9 10 11 12 13 14 15 16 17 18 19 20 21 22 23 24
000
FTUS41 KOKX 270006 RRA
TAFSWF
TAF
KSWF 270006Z 2700/2806 02010KT 2SM -SHRA BR OVC004
     FM270100 36006KT 4SM -RA BR SCT015 BKN025
      TEMPO 2701/2703 SCT004 BKN012
     FM270900 36005KT 4SM -SNRA BR BKN025
     FM271300 33007KT P6SM SCT025 OVC100
     FM271700 33007KT P6SM VCSH BKN040
     FM280000 36006KT P6SM SCT040 BKN110
      AMD NOT SKED=

USA.gov is the U.S. government's official web portal to all federal, state and local government web resources and services.